済州 の空港の天気 - METARとTAF

済州国際空港 ( RKPC / CJU ) - 韓国 済州
飛行場実況気象(Metar)
観測時間07/20 20:00 KST (07/20 11:00 UTC)
風向・風速西南西 9m/s
視程4000m
天気現象弱い雨 もや
全天の4割程度の雲 雲底高度 300m
全天の8割程度の雲 雲底高度 760m
全天を覆う雲 雲底高度 2440m
気温24℃
湿度94%
気圧1000hPa
METARRKPC 201100Z 25017KT 4000 -RA BR SCT010 BKN025 OVC080 24/23 Q1000 NOSIG
過去の天気等 Google飛行場航空写真 Wunderground天気予報

過去48時間のMETAR

飛行場予報(TAF)
発表時間: 7/20 20:00 KST (7/20 11:00 UTC)
予報対象時間: 20日21時 KST ~ 22日3時 KST
風向・風速西南西 13m/s 瞬間風速 18m/s
視程4500m
天気現象弱い雨
全天の4割程度の雲 雲底高度 300m
全天の8割程度の雲 雲底高度 760m
全天を覆う雲 雲底高度 2440m
20日22時 KST ~ 20日23時 KST に徐々に
視程6000m
天気現象運行に影響にある天気現象が終了
21日0時 KST ~ 21日1時 KST に徐々に
風向・風速西南西 8m/s 瞬間風速 13m/s
21日9時 KST ~ 21日10時 KST に徐々に
風向・風速西 5m/s
21日11時 KST ~ 21日12時 KST に徐々に
全天の4割程度の雲 雲底高度 910m
21日18時 KST ~ 21日19時 KST に徐々に
風向・風速北東 3m/s
視程4200m
天気現象もや
少しの雲 雲底高度 300m
全天の8割程度の雲 雲底高度 910m
全天を覆う雲 雲底高度 3050m
TAF RKPC 201100Z 2012/2118 25025G35KT 4500 -RA SCT010 BKN025 OVC080 TN25/2020Z TX31/2105Z
BECMG 2013/2014 6000 NSW
BECMG 2015/2016 25015G25KT
BECMG 2100/2101 27010KT
BECMG 2102/2103 SCT030
BECMG 2109/2110 05005KT 4200 BR FEW010 BKN030 OVC100